Strongsville, OH (44136)

1:32 PM EDT on July 28, 2017 (GMT -0400)
Hampton Chase | | Change Station
Active Advisory: Beach Hazard Statement

Elev 1026 ft 41.29 °N, 81.82 °W | Updated 2 minutes ago

Mostly Cloudy
Mostly Cloudy
78.6 °F
Feels Like 81 °F
N
1.0
Wind Variable Wind from NNE
Gusts 1.0 mph

Today
High -- | Low -- °F
--% Chance of Precip.
Yesterday
High -- | Low -- °F
Precip. -- in
Pressure 29.87 in
Visibility 10.0 miles
Clouds Mostly Cloudy 1700 ft
Mostly Cloudy 25000 ft
Heat Index 81 °F
Dew Point 68 °F
Humidity 70%
Rainfall 0.00 in
Snow Depth Not available.
6:18 AM 8:48 PM
Waxing Crescent, 32% visible
METAR KCLE 281651Z 04015KT 10SM BKN017 BKN250 27/21 A2989 RMK AO2 SLP115 T02670206
Pressure 29.87 in
Visibility 10.0 miles
Clouds Mostly Cloudy 1700 ft
Mostly Cloudy 25000 ft
Heat Index 81 °F
Dew Point 68 °F
Humidity 70%
Rainfall 0.00 in
Snow Depth Not available.
6:18 AM 8:48 PM
Waxing Crescent, 32% visible
METAR KCLE 281651Z 04015KT 10SM BKN017 BKN250 27/21 A2989 RMK AO2 SLP115 T02670206

Get Your Daily Forecast Email!

Thanks for signing up!

Be on the lookout for a verification email in your inbox.

You'll start receiving severe weather alerts in your inbox..

×

10-Day Weather Forecast

Almanac

Astronomy

Jul. 28, 2017 Rise Set
Actual Time
Civil Twilight
Nautical Twilight
Astronomical Twilight
Moon
Length of Visible Light
Length of Day
Tomorrow will be .
, % of the Moon is Illuminated

Today's Extremes

State Highs State Lows

Community

WunderPhotos

Category 6

Welcome to Category 6. This is the collective home for Weather Underground's featured writeups by Dr. Jeff Masters (right), Bob Henson (left), Chris Burt, and other regular contributors.

Nearby

Air Quality

  Air Quality AQ Index Pollutant
Not available.

Snow Depth

Station Depth Elevation

Earthquake Activity

City Distance Mag. Time & Date
Minimum magnitude displayed is 2.5.

Coastal Water Temperatures

Place Temperature

Stations

Nearby Weather Stations

Station Location Temp. Windchill Dew Point Humidity Wind Precip. Elev Updated Type
                   

Watches & Warnings

Beach Hazard Statement
Issued: 10:34 AM EDT Jul. 28, 2017 – National Weather Service

... Beach hazards statement remains in effect through Saturday
afternoon...

* locations... Lakeshore from Lucas County east to Erie County
Pennsylvania.

* Timing... this morning through early Saturday afternoon.

* Impacts... high swimming risk from waves and dangerous currents.

Precautionary/preparedness actions...

A beach hazards statement is issued when swimming risks exist
from a combination of wind and large waves including rip currents
and longshore currents. These swimming risks can create life-
threatening conditions even for good swimmers. Follow the
instruction of local authorities or stay out of the water.